createdAt,value
2018-07-11T00:00:21.800Z,51.33
2018-07-11T00:02:48.458Z,51.28
2018-07-11T00:05:15.341Z,51.23
2018-07-11T00:07:41.917Z,51.26
2018-07-11T00:10:09.361Z,51.31
2018-07-11T00:12:36.430Z,51.31
2018-07-11T00:15:04.503Z,51.13
2018-07-11T00:17:31.533Z,51.10
2018-07-11T00:19:58.791Z,51.26
2018-07-11T00:22:25.760Z,51.17
2018-07-11T00:24:52.242Z,51.27
2018-07-11T00:29:50.960Z,51.06
2018-07-11T00:32:17.760Z,51.17
2018-07-11T00:34:44.148Z,51.14
2018-07-11T00:37:10.974Z,51.16
2018-07-11T00:39:41.034Z,50.97
2018-07-11T00:42:07.706Z,51.08
2018-07-11T00:44:34.065Z,50.95
2018-07-11T00:47:00.949Z,50.97
2018-07-11T00:49:27.377Z,51.23
2018-07-11T00:51:53.771Z,51.05
2018-07-11T00:54:20.271Z,50.93
2018-07-11T00:56:46.674Z,50.81
2018-07-11T00:59:12.996Z,50.75
2018-07-11T01:01:39.490Z,50.96
2018-07-11T01:04:05.836Z,51.01
2018-07-11T01:06:32.292Z,51.28
2018-07-11T01:08:58.769Z,51.54
2018-07-11T01:11:25.646Z,51.66
2018-07-11T01:13:52.047Z,51.75
2018-07-11T01:16:18.659Z,51.91
2018-07-11T01:18:45.172Z,52.07
2018-07-11T01:21:11.681Z,52.04
2018-07-11T01:23:38.356Z,52.05
2018-07-11T01:26:04.708Z,52.00
2018-07-11T01:28:31.096Z,51.89
2018-07-11T01:30:57.547Z,52.01
2018-07-11T01:33:23.998Z,52.18
2018-07-11T01:35:50.470Z,52.04
2018-07-11T01:38:17.089Z,51.92
2018-07-11T01:40:43.424Z,52.12
2018-07-11T01:43:09.827Z,51.81
2018-07-11T01:45:36.429Z,51.91
2018-07-11T01:48:02.827Z,51.91
2018-07-11T01:50:29.207Z,51.73
2018-07-11T01:52:56.345Z,51.89
2018-07-11T01:55:23.614Z,51.87
2018-07-11T01:57:50.405Z,51.88
2018-07-11T02:00:16.897Z,51.83
2018-07-11T02:02:44.816Z,51.70
2018-07-11T02:05:11.151Z,51.57
2018-07-11T02:07:37.896Z,51.54
2018-07-11T02:10:04.587Z,51.65
2018-07-11T02:12:30.995Z,51.62
2018-07-11T02:14:57.777Z,51.62
2018-07-11T02:17:24.697Z,51.64
2018-07-11T02:19:51.029Z,51.87
2018-07-11T02:22:17.591Z,51.91
2018-07-11T02:24:44.400Z,51.73
2018-07-11T02:27:10.947Z,51.66
2018-07-11T02:29:37.464Z,51.71
2018-07-11T02:32:04.639Z,51.68
2018-07-11T02:34:30.967Z,51.65
2018-07-11T02:36:57.731Z,51.67
2018-07-11T02:39:24.660Z,51.66
2018-07-11T02:41:51.127Z,51.76
2018-07-11T02:44:17.509Z,51.67
2018-07-11T02:46:43.921Z,51.66
2018-07-11T02:49:10.531Z,51.66
2018-07-11T02:51:36.860Z,51.76
2018-07-11T02:54:03.754Z,51.62
2018-07-11T02:56:31.168Z,51.76
2018-07-11T02:58:57.770Z,51.64
2018-07-11T03:01:24.408Z,51.64
2018-07-11T03:03:50.922Z,51.71
2018-07-11T03:06:17.443Z,51.74
2018-07-11T03:08:43.868Z,51.63
2018-07-11T03:11:10.820Z,51.67
2018-07-11T03:13:37.547Z,51.63
2018-07-11T03:16:04.412Z,51.66
2018-07-11T03:18:30.916Z,51.66
2018-07-11T03:20:58.412Z,51.66
2018-07-11T03:23:24.790Z,51.45
2018-07-11T03:25:51.112Z,51.51
2018-07-11T03:28:17.737Z,51.42
2018-07-11T03:30:44.278Z,51.51
2018-07-11T03:33:10.647Z,51.49
2018-07-11T03:35:37.007Z,51.43
2018-07-11T03:38:03.326Z,51.21
2018-07-11T03:40:29.732Z,51.13
2018-07-11T03:42:56.048Z,50.84
2018-07-11T03:45:22.424Z,50.76
2018-07-11T03:47:50.016Z,50.52
2018-07-11T03:50:16.341Z,50.31
2018-07-11T03:52:42.655Z,50.11
2018-07-11T03:55:09.328Z,49.92
2018-07-11T03:57:35.639Z,49.71
2018-07-11T04:00:02.361Z,49.61
2018-07-11T04:02:38.130Z,49.50
2018-07-11T04:05:06.752Z,49.44
2018-07-11T04:07:33.161Z,49.30
2018-07-11T04:10:02.754Z,49.12
2018-07-11T04:12:29.526Z,48.94
2018-07-11T04:14:56.924Z,48.79
2018-07-11T04:17:25.092Z,48.66
2018-07-11T04:22:25.538Z,48.55
2018-07-11T04:24:52.045Z,48.38
2018-07-11T04:27:18.763Z,48.57
2018-07-11T04:29:45.618Z,48.34
2018-07-11T04:32:12.310Z,48.41
2018-07-11T04:34:39.310Z,48.28
2018-07-11T04:37:06.371Z,48.45
2018-07-11T04:39:33.102Z,48.38
2018-07-11T04:41:59.684Z,48.31
2018-07-11T04:44:27.299Z,48.30
2018-07-11T04:46:53.895Z,48.28
2018-07-11T04:49:20.596Z,48.28
2018-07-11T04:51:47.339Z,48.37
2018-07-11T04:54:13.789Z,48.25
2018-07-11T04:56:40.523Z,48.33
2018-07-11T04:59:06.882Z,48.48
2018-07-11T05:01:33.436Z,48.19
2018-07-11T05:04:00.070Z,48.39
2018-07-11T05:06:27.425Z,48.34
2018-07-11T05:08:54.193Z,48.46
2018-07-11T05:11:22.044Z,48.55
2018-07-11T05:13:53.224Z,48.36
2018-07-11T05:16:19.660Z,48.51
2018-07-11T05:18:47.143Z,48.50
2018-07-11T05:21:13.526Z,48.46
2018-07-11T05:23:40.111Z,48.50
2018-07-11T05:26:06.501Z,48.61
2018-07-11T05:28:33.659Z,48.66
2018-07-11T05:31:01.865Z,48.65
2018-07-11T05:33:28.235Z,48.63
2018-07-11T05:35:55.063Z,48.51
2018-07-11T05:38:21.634Z,48.58
2018-07-11T05:40:48.174Z,48.71
2018-07-11T05:43:14.632Z,48.76
2018-07-11T05:45:41.178Z,48.91
2018-07-11T05:48:07.750Z,48.85
2018-07-11T05:50:34.170Z,48.66
2018-07-11T05:53:00.640Z,48.79
2018-07-11T05:55:27.350Z,48.83
2018-07-11T05:57:53.701Z,48.75
2018-07-11T06:00:20.049Z,48.93
2018-07-11T06:02:47.292Z,48.96
2018-07-11T06:05:13.758Z,48.86
2018-07-11T06:07:40.129Z,49.28
2018-07-11T06:10:06.515Z,49.32
2018-07-11T06:12:32.913Z,49.27
2018-07-11T06:15:00.074Z,49.22
2018-07-11T06:17:26.515Z,49.56
2018-07-11T06:19:52.966Z,49.25
2018-07-11T06:22:19.360Z,49.53
2018-07-11T06:24:46.192Z,49.34
2018-07-11T06:27:12.754Z,49.29
2018-07-11T06:29:39.184Z,49.39
2018-07-11T06:32:05.736Z,49.51
2018-07-11T06:34:32.159Z,49.67
2018-07-11T06:36:59.594Z,49.51
2018-07-11T06:39:27.348Z,49.50
2018-07-11T06:41:53.918Z,49.48
2018-07-11T06:44:20.666Z,49.49
2018-07-11T06:46:48.456Z,49.69
2018-07-11T06:49:15.118Z,49.36
2018-07-11T06:51:42.354Z,49.61
2018-07-11T06:54:08.854Z,49.38
2018-07-11T06:56:35.296Z,49.43
2018-07-11T06:59:01.804Z,49.26
2018-07-11T07:01:28.478Z,49.47
2018-07-11T07:03:55.169Z,49.57
2018-07-11T07:06:26.160Z,49.19
2018-07-11T07:08:55.197Z,49.17
2018-07-11T07:11:22.816Z,49.42
2018-07-11T07:13:49.732Z,49.40
2018-07-11T07:18:50.129Z,49.61
2018-07-11T07:21:25.122Z,49.46
2018-07-11T07:23:55.218Z,49.55
2018-07-11T07:28:55.494Z,49.38
2018-07-11T07:31:24.300Z,49.49
2018-07-11T07:33:51.660Z,49.41
2018-07-11T07:36:18.483Z,49.20
2018-07-11T07:38:45.302Z,49.18
2018-07-11T07:41:12.150Z,49.53
2018-07-11T07:43:38.859Z,49.20
2018-07-11T07:46:05.789Z,49.42
2018-07-11T07:48:36.465Z,49.31
2018-07-11T07:51:03.939Z,49.07
2018-07-11T07:53:31.082Z,49.35
2018-07-11T07:55:59.133Z,49.06
2018-07-11T07:58:26.132Z,49.23
2018-07-11T08:00:53.227Z,49.21
2018-07-11T08:03:20.071Z,49.24
2018-07-11T08:05:48.073Z,49.38
2018-07-11T08:08:15.322Z,49.04
2018-07-11T08:10:46.391Z,49.08
2018-07-11T08:13:14.401Z,49.21
2018-07-11T08:18:12.910Z,49.27
2018-07-11T08:20:40.019Z,48.89
2018-07-11T08:25:41.199Z,49.37
2018-07-11T08:28:10.814Z,49.26
2018-07-11T08:33:20.914Z,49.48
2018-07-11T08:35:48.540Z,49.33
2018-07-11T08:38:15.333Z,49.62
2018-07-11T08:40:42.492Z,49.47
2018-07-11T08:43:09.835Z,49.40
2018-07-11T08:45:39.775Z,49.76
2018-07-11T09:06:37.938Z,48.98
2018-07-11T09:09:05.040Z,48.87
2018-07-11T09:11:31.828Z,48.95
2018-07-11T09:13:59.081Z,49.02
2018-07-11T09:16:25.821Z,49.15
2018-07-11T09:18:54.297Z,49.23
2018-07-11T09:21:22.343Z,49.18
2018-07-11T09:23:49.374Z,49.15
2018-07-11T09:26:17.638Z,49.62
2018-07-11T09:28:44.448Z,49.44
2018-07-11T09:31:11.700Z,49.48
2018-07-11T09:33:39.375Z,49.58
2018-07-11T09:36:09.388Z,49.54
2018-07-11T09:38:36.035Z,49.76
2018-07-11T09:41:03.116Z,49.60
2018-07-11T09:43:30.022Z,49.47
2018-07-11T09:45:58.674Z,49.58
2018-07-11T09:48:29.096Z,49.46
2018-07-11T09:51:04.997Z,49.44
2018-07-11T09:53:32.811Z,49.38
2018-07-11T09:56:03.240Z,49.45
2018-07-11T09:58:30.347Z,49.33
2018-07-11T10:16:56.194Z,49.33
2018-07-11T10:19:23.336Z,48.96
2018-07-11T10:21:50.384Z,48.66
2018-07-11T10:24:16.919Z,48.88
2018-07-11T10:26:43.947Z,49.04
2018-07-11T10:29:13.843Z,49.24
2018-07-11T10:31:41.117Z,49.04
2018-07-11T10:34:08.228Z,49.34
2018-07-11T10:36:35.513Z,49.41
2018-07-11T10:39:02.788Z,49.14
2018-07-11T10:41:32.492Z,49.25
2018-07-11T10:43:59.590Z,48.57
2018-07-11T10:46:26.774Z,48.93
2018-07-11T10:48:54.299Z,49.09
2018-07-11T10:51:26.224Z,48.91
2018-07-11T10:53:53.559Z,48.79
2018-07-11T10:56:20.640Z,48.97
2018-07-11T10:58:49.694Z,48.99
2018-07-11T11:01:16.707Z,48.00
2018-07-11T11:03:43.758Z,48.17
2018-07-11T11:06:14.711Z,48.79
2018-07-11T11:08:42.602Z,48.79
2018-07-11T11:11:09.837Z,49.05
2018-07-11T11:13:38.179Z,48.00
2018-07-11T11:16:05.317Z,48.57
2018-07-11T11:18:32.551Z,48.99
2018-07-11T11:20:59.663Z,48.63
2018-07-11T11:23:27.095Z,48.66
2018-07-11T11:25:54.195Z,48.88
2018-07-11T11:28:21.260Z,48.88
2018-07-11T11:30:58.344Z,49.02
2018-07-11T11:33:25.245Z,48.90
2018-07-11T11:35:52.063Z,49.14
2018-07-11T11:38:21.017Z,48.66
2018-07-11T11:40:48.050Z,49.05
2018-07-11T11:43:15.869Z,49.10
2018-07-11T11:45:43.759Z,49.53
2018-07-11T11:48:10.957Z,49.43
2018-07-11T11:50:44.108Z,49.09
2018-07-11T11:53:11.191Z,49.24
2018-07-11T11:55:38.686Z,49.01
2018-07-11T11:58:53.438Z,48.91
2018-07-11T12:01:20.508Z,49.02
2018-07-11T12:03:48.668Z,49.12
2018-07-11T12:06:15.756Z,48.99
2018-07-11T12:08:42.548Z,48.95
2018-07-11T12:11:09.494Z,49.08
2018-07-11T12:13:37.974Z,49.22
2018-07-11T12:16:04.817Z,48.85
2018-07-11T12:18:31.316Z,49.06
2018-07-11T12:20:58.244Z,48.22
2018-07-11T12:23:24.978Z,48.94
2018-07-11T12:25:51.701Z,48.59
2018-07-11T12:28:18.268Z,48.46
2018-07-11T12:30:48.524Z,49.08
2018-07-11T12:33:15.442Z,49.33
2018-07-11T12:35:42.219Z,48.27
2018-07-11T12:38:08.967Z,48.95
2018-07-11T12:40:36.806Z,48.66
2018-07-11T12:43:03.555Z,48.77
2018-07-11T12:45:30.134Z,48.86
2018-07-11T12:47:56.937Z,48.81
2018-07-11T12:50:24.241Z,48.88
2018-07-11T12:52:51.522Z,48.50
2018-07-11T12:55:18.387Z,48.89
2018-07-11T12:57:49.006Z,48.47
2018-07-11T13:00:15.953Z,48.17
2018-07-11T13:02:43.021Z,48.58
2018-07-11T13:05:09.957Z,48.44
2018-07-11T13:07:37.002Z,48.73
2018-07-11T13:10:04.262Z,48.46
2018-07-11T13:12:31.223Z,48.86
2018-07-11T13:14:59.373Z,48.59
2018-07-11T13:17:26.514Z,48.42
2018-07-11T13:41:04.187Z,47.89
2018-07-11T13:43:31.278Z,47.91
2018-07-11T13:45:58.337Z,48.17
2018-07-11T13:48:25.268Z,47.87
2018-07-11T13:50:52.266Z,47.93
2018-07-11T13:53:19.389Z,48.21
2018-07-11T13:55:46.726Z,47.73
2018-07-11T13:58:14.129Z,48.02
2018-07-11T14:00:48.530Z,48.21
2018-07-11T14:03:16.832Z,47.67
2018-07-11T14:13:29.834Z,47.27
2018-07-11T14:15:56.791Z,48.25
2018-07-11T14:18:23.452Z,47.46
2018-07-11T14:20:54.861Z,47.47
2018-07-11T14:23:21.788Z,47.66
2018-07-11T14:25:48.766Z,47.67
2018-07-11T14:28:16.461Z,47.57
2018-07-11T14:30:42.918Z,47.42
2018-07-11T14:33:09.336Z,47.52
2018-07-11T14:35:36.220Z,47.69
2018-07-11T14:38:03.228Z,47.69
2018-07-11T14:40:36.925Z,47.58
2018-07-11T14:43:03.793Z,46.82
2018-07-11T14:45:30.591Z,47.02
2018-07-11T14:47:57.578Z,46.41
2018-07-11T15:01:06.994Z,46.70
2018-07-11T15:03:33.693Z,46.77
2018-07-11T15:06:00.060Z,46.82
2018-07-11T15:08:26.592Z,46.57
2018-07-11T15:10:53.049Z,46.36
2018-07-11T15:13:19.434Z,46.49
2018-07-11T15:15:45.959Z,46.31
2018-07-11T15:18:12.291Z,46.55
2018-07-11T15:20:38.817Z,46.41
2018-07-11T15:23:06.205Z,46.22
2018-07-11T15:25:32.558Z,46.70
2018-07-11T15:28:00.291Z,46.72
2018-07-11T15:30:26.678Z,46.20
2018-07-11T15:32:53.354Z,46.63
2018-07-11T15:35:20.429Z,46.43
2018-07-11T15:37:47.062Z,46.53
2018-07-11T15:40:21.518Z,46.57
2018-07-11T15:42:48.039Z,46.58
2018-07-11T15:45:14.532Z,46.72
2018-07-11T15:47:41.656Z,46.76
2018-07-11T15:50:08.264Z,46.69
2018-07-11T15:52:35.413Z,46.65
2018-07-11T15:55:02.024Z,46.64
2018-07-11T15:57:28.922Z,46.54
2018-07-11T15:59:55.825Z,46.72
2018-07-11T16:02:22.220Z,46.83
2018-07-11T16:19:58.023Z,47.61
2018-07-11T16:22:24.565Z,47.62
2018-07-11T16:24:51.188Z,47.77
2018-07-11T16:27:17.940Z,47.86
2018-07-11T16:29:44.307Z,47.98
2018-07-11T16:32:10.641Z,48.06
2018-07-11T16:34:38.821Z,48.31
2018-07-11T16:37:05.644Z,48.40
2018-07-11T16:39:32.086Z,48.54
2018-07-11T16:41:58.738Z,48.66
2018-07-11T16:44:25.130Z,48.78
2018-07-11T16:46:52.874Z,48.67
2018-07-11T16:49:19.560Z,49.05
2018-07-11T16:51:46.251Z,48.89
2018-07-11T16:54:12.789Z,49.00
2018-07-11T16:56:39.202Z,49.21
2018-07-11T16:59:06.075Z,49.13
2018-07-11T17:19:13.405Z,48.61
2018-07-11T17:21:40.552Z,48.58
2018-07-11T17:24:06.980Z,48.55
2018-07-11T17:26:34.773Z,48.49
2018-07-11T17:29:01.564Z,48.57
2018-07-11T17:31:27.915Z,48.78
2018-07-11T17:33:54.270Z,48.77
2018-07-11T17:36:21.019Z,49.08
2018-07-11T17:38:47.932Z,49.16
2018-07-11T17:41:14.290Z,48.79
2018-07-11T17:43:40.798Z,48.78
2018-07-11T17:46:07.049Z,49.08
2018-07-11T17:48:33.938Z,49.18
2018-07-11T17:51:07.968Z,49.44
2018-07-11T17:53:34.419Z,49.62
2018-07-11T17:56:00.808Z,49.65
2018-07-11T17:58:27.133Z,49.65
2018-07-11T18:19:10.897Z,49.25
2018-07-11T18:21:37.306Z,49.28
2018-07-11T18:24:04.692Z,50.08
2018-07-11T18:26:31.069Z,50.28
2018-07-11T18:28:57.395Z,50.38
2018-07-11T18:31:24.455Z,50.13
2018-07-11T18:33:51.090Z,50.44
2018-07-11T18:36:17.656Z,50.48
2018-07-11T18:38:44.165Z,50.38
2018-07-11T18:41:10.518Z,50.53
2018-07-11T18:43:36.907Z,50.53
2018-07-11T18:46:03.789Z,50.70
2018-07-11T18:51:09.142Z,50.46
2018-07-11T18:53:35.484Z,50.30
2018-07-11T18:56:01.913Z,50.27
2018-07-11T18:58:28.236Z,50.25
2018-07-11T19:19:11.495Z,50.31
2018-07-11T19:21:38.084Z,50.28
2018-07-11T19:24:04.509Z,50.29
2018-07-11T19:26:30.918Z,50.28
2018-07-11T19:28:57.705Z,50.24
2018-07-11T19:31:24.092Z,50.21
2018-07-11T19:33:50.459Z,50.25
2018-07-11T19:36:16.873Z,50.18
2018-07-11T19:38:43.260Z,50.25
2018-07-11T19:41:09.679Z,50.23
2018-07-11T19:43:36.019Z,50.25
2018-07-11T19:46:02.530Z,50.24
2018-07-11T19:48:28.925Z,50.27
2018-07-11T19:50:55.251Z,50.22
2018-07-11T19:53:21.638Z,50.27
2018-07-11T19:55:47.955Z,50.25
2018-07-11T19:58:14.549Z,50.26
2018-07-11T20:00:41.031Z,50.29
2018-07-11T20:03:07.411Z,50.29
2018-07-11T20:05:33.718Z,50.30
2018-07-11T20:18:05.944Z,50.36
2018-07-11T20:20:40.519Z,50.35
2018-07-11T20:23:07.120Z,50.31
2018-07-11T20:25:33.637Z,50.29
2018-07-11T20:28:00.378Z,50.32
2018-07-11T20:41:08.606Z,50.47
2018-07-11T20:43:35.012Z,50.47
2018-07-11T20:46:01.524Z,50.52
2018-07-11T20:48:28.733Z,50.40
2018-07-11T20:50:55.068Z,50.47
2018-07-11T20:53:21.782Z,50.48
2018-07-11T20:55:48.285Z,50.53
2018-07-11T20:58:17.020Z,50.52
2018-07-11T21:00:43.391Z,50.51
2018-07-11T21:03:11.721Z,50.52
2018-07-11T21:05:38.352Z,50.54
2018-07-11T21:08:05.075Z,50.53
2018-07-11T21:10:39.131Z,50.56
2018-07-11T21:13:05.444Z,50.69
2018-07-11T21:20:34.858Z,50.78
2018-07-11T21:23:01.265Z,50.87
2018-07-11T21:25:31.378Z,50.82
2018-07-11T21:27:57.946Z,50.85
2018-07-11T21:30:32.454Z,50.91
2018-07-11T21:32:58.769Z,51.03
2018-07-11T21:35:25.459Z,50.89
2018-07-11T21:37:52.069Z,50.98
2018-07-11T21:40:18.402Z,50.91
2018-07-11T21:42:44.771Z,51.08
2018-07-11T21:45:11.115Z,51.13
2018-07-11T21:47:37.448Z,51.13
2018-07-11T21:50:04.061Z,50.99
2018-07-11T21:52:30.391Z,51.03
2018-07-11T21:54:56.743Z,51.21
2018-07-11T21:57:23.702Z,51.01
2018-07-11T21:59:50.034Z,51.08
2018-07-11T22:02:16.602Z,50.98
2018-07-11T22:04:43.389Z,51.06
2018-07-11T22:07:09.783Z,51.04
2018-07-11T22:09:36.537Z,51.17
2018-07-11T22:12:03.249Z,51.17
2018-07-11T22:14:29.585Z,51.15
2018-07-11T22:16:56.748Z,51.19
2018-07-11T22:19:24.767Z,51.19
2018-07-11T22:21:51.353Z,51.23
2018-07-11T22:24:17.704Z,51.13
2018-07-11T22:26:44.063Z,51.17
2018-07-11T22:29:10.408Z,51.26
2018-07-11T22:31:36.821Z,51.18
2018-07-11T22:34:03.322Z,51.24
2018-07-11T22:36:29.671Z,51.33
2018-07-11T22:38:56.028Z,51.27
2018-07-11T22:41:22.375Z,51.28
2018-07-11T22:43:48.741Z,51.45
2018-07-11T22:46:15.140Z,51.35
2018-07-11T22:48:41.661Z,51.35
2018-07-11T22:51:11.882Z,51.35
2018-07-11T22:53:38.210Z,51.33
2018-07-11T22:56:06.262Z,51.40
2018-07-11T22:58:33.060Z,51.41
2018-07-11T23:00:59.625Z,51.53
2018-07-11T23:03:26.584Z,51.43
2018-07-11T23:05:52.956Z,51.45
2018-07-11T23:08:19.328Z,51.41
2018-07-11T23:10:46.168Z,51.36
2018-07-11T23:13:12.519Z,51.45
2018-07-11T23:15:38.892Z,51.55
2018-07-11T23:18:05.229Z,51.50
2018-07-11T23:20:31.551Z,51.52
2018-07-11T23:22:58.071Z,51.50
2018-07-11T23:25:25.446Z,51.51
2018-07-11T23:27:52.300Z,51.43
2018-07-11T23:30:27.775Z,51.45
2018-07-11T23:32:54.093Z,51.48
2018-07-11T23:35:20.642Z,51.48
2018-07-11T23:37:47.477Z,51.50
2018-07-11T23:40:13.795Z,51.48
2018-07-11T23:42:40.219Z,51.41
2018-07-11T23:45:06.767Z,51.43
2018-07-11T23:47:33.138Z,51.52
2018-07-11T23:49:59.903Z,51.58
2018-07-11T23:52:26.204Z,51.46
2018-07-11T23:54:52.836Z,51.39
2018-07-11T23:57:19.204Z,51.47
2018-07-11T23:59:45.880Z,51.44
